Time;durP1;ratioP1;P1;durP2;ratioP2;P2;SDS_P1;SDS_P2;PMS_P1;PMS_P2;Temp;Humidity;BMP_temperature;BMP_pressure;BME280_temperature;BME280_humidity;BME280_pressure;Samples;Min_cycle;Max_cycle;Signal;HPM_P1;HPM_P2
2022/07/21 00:04:58;;;;;;;15.15;9.23;;;;;;;22.33;61.56;100062.72;10329405;28;20102;-76
2022/07/21 00:10:00;;;;;;;14.18;9.85;;;;;;;22.22;61.98;100089.69;10329061;28;20053;-76
2022/07/21 00:15:05;;;;;;;14.25;9.25;;;;;;;22.09;62.19;100117.78;10327875;28;20057;-76
2022/07/21 00:20:09;;;;;;;10.02;7.68;;;;;;;22.04;60.35;100088.13;10329513;28;20550;-76
2022/07/21 00:25:15;;;;;;;11.13;7.10;;;;;;;22.05;59.11;100106.59;10343207;28;20054;-76
2022/07/21 00:30:17;;;;;;;11.80;6.38;;;;;;;22.14;58.19;100142.09;10333613;28;20898;-77
2022/07/21 00:35:19;;;;;;;9.43;6.50;;;;;;;21.76;57.97;100101.59;10335856;28;20054;-77
2022/07/21 00:40:21;;;;;;;8.75;5.50;;;;;;;21.65;57.27;100087.75;10336637;28;20050;-77
2022/07/21 00:45:23;;;;;;;10.38;5.40;;;;;;;21.50;56.26;100076.84;10333529;28;20086;-76
2022/07/21 00:50:25;;;;;;;9.80;6.38;;;;;;;21.48;58.71;100072.66;10328469;28;20050;-76
2022/07/21 00:55:26;;;;;;;8.95;6.13;;;;;;;21.52;59.05;100101.47;10336327;28;20054;-77
2022/07/21 01:00:30;;;;;;;8.27;5.57;;;;;;;21.26;59.21;100131.69;10349231;28;20054;-76
2022/07/21 01:05:39;;;;;;;8.63;5.95;;;;;;;20.97;60.14;100124.81;10346074;28;20055;-76
2022/07/21 01:10:41;;;;;;;7.20;5.18;;;;;;;20.67;60.39;100122.53;10333775;28;20050;-76
2022/07/21 01:15:43;;;;;;;8.45;5.78;;;;;;;20.52;61.02;100137.28;10332162;28;20393;-76
2022/07/21 01:20:55;;;;;;;8.65;5.80;;;;;;;20.43;60.46;100124.91;10333317;28;20092;-76
2022/07/21 01:25:57;;;;;;;12.27;6.40;;;;;;;20.28;61.37;100123.75;10334571;28;20120;-76
2022/07/21 01:30:58;;;;;;;8.02;5.70;;;;;;;20.17;62.04;100124.78;10333052;28;20046;-76
2022/07/21 01:36:00;;;;;;;7.00;5.40;;;;;;;20.17;61.67;100134.59;10332435;28;20050;-76
2022/07/21 01:46:23;;;;;;;7.60;5.28;;;;;;;20.12;61.66;100153.59;10335255;28;20101;-76
2022/07/21 01:51:26;;;;;;;9.80;5.38;;;;;;;20.18;61.67;100152.19;10333876;28;20051;-76
2022/07/21 01:56:28;;;;;;;7.28;5.30;;;;;;;20.21;61.84;100138.63;10331926;28;20108;-76
2022/07/21 02:01:30;;;;;;;7.75;5.65;;;;;;;20.19;61.68;100140.59;10347443;28;20062;-75
2022/07/21 02:06:32;;;;;;;11.40;5.72;;;;;;;20.15;61.55;100141.88;10352760;28;20050;-76
2022/07/21 02:11:34;;;;;;;10.38;5.63;;;;;;;20.05;62.54;100159.66;10351294;28;20136;-76
2022/07/21 02:16:36;;;;;;;8.95;5.53;;;;;;;20.01;62.22;100145.81;10337897;28;20500;-75
2022/07/21 02:21:38;;;;;;;6.80;4.90;;;;;;;20.01;61.92;100132.53;10338189;28;20054;-76
2022/07/21 02:26:40;;;;;;;9.60;5.68;;;;;;;19.88;62.75;100139.19;10338758;28;20054;-76
2022/07/21 02:31:42;;;;;;;10.13;5.82;;;;;;;19.96;62.55;100141.94;10339558;28;20054;-76
2022/07/21 02:36:44;;;;;;;9.57;5.32;;;;;;;20.03;62.49;100143.03;10335956;28;20056;-76
2022/07/21 02:41:46;;;;;;;9.05;5.05;;;;;;;20.06;62.48;100140.91;10337706;28;20049;-76
2022/07/21 02:46:48;;;;;;;7.57;5.50;;;;;;;20.19;62.00;100143.25;10337640;28;20089;-76
2022/07/21 02:51:49;;;;;;;7.32;4.95;;;;;;;20.12;62.20;100143.00;10337066;28;20112;-76
2022/07/21 02:56:51;;;;;;;9.85;5.47;;;;;;;20.04;62.00;100134.91;10333900;28;20060;-76
2022/07/21 03:01:53;;;;;;;10.00;5.90;;;;;;;20.10;62.16;100133.50;10335900;28;20088;-76
2022/07/21 03:06:55;;;;;;;8.55;5.93;;;;;;;20.19;62.25;100133.44;10335059;28;20455;-76
2022/07/21 03:11:57;;;;;;;8.40;5.38;;;;;;;20.20;61.76;100123.66;10332426;28;20109;-76
2022/07/21 03:17:00;;;;;;;9.65;5.53;;;;;;;20.09;62.24;100150.41;10331982;28;20089;-76
2022/07/21 03:22:02;;;;;;;6.80;5.43;;;;;;;20.07;62.20;100152.38;10332615;28;20050;-76
2022/07/21 03:27:04;;;;;;;8.23;5.45;;;;;;;20.02;62.16;100151.97;10331591;28;20062;-76
2022/07/21 03:32:08;;;;;;;9.30;5.70;;;;;;;19.90;62.49;100147.84;10331397;28;20057;-76
2022/07/21 03:37:10;;;;;;;8.30;5.60;;;;;;;19.85;62.13;100142.94;10329917;28;20459;-76
2022/07/21 03:42:12;;;;;;;9.13;6.03;;;;;;;19.78;62.43;100144.50;10344300;28;20631;-76
2022/07/21 03:47:15;;;;;;;7.75;5.80;;;;;;;19.68;62.94;100143.69;10331780;28;20058;-75
2022/07/21 03:52:17;;;;;;;7.93;6.75;;;;;;;19.61;62.80;100150.53;10329776;28;20817;-76
2022/07/21 03:57:19;;;;;;;8.40;6.18;;;;;;;19.39;63.07;100146.41;10332018;28;20061;-76
2022/07/21 04:02:20;;;;;;;7.47;5.97;;;;;;;19.41;63.42;100159.53;10335352;28;20053;-76
2022/07/21 04:07:22;;;;;;;7.88;6.30;;;;;;;19.47;63.21;100164.25;10335706;28;20065;-76
2022/07/21 04:12:26;;;;;;;10.90;7.47;;;;;;;19.40;63.20;100166.63;10336800;28;20057;-76
2022/07/21 04:17:28;;;;;;;8.10;5.68;;;;;;;19.36;62.74;100169.72;10335602;28;20054;-75
2022/07/21 04:22:30;;;;;;;9.32;5.90;;;;;;;19.23;63.73;100170.03;10335301;28;20053;-76
2022/07/21 04:27:32;;;;;;;9.07;6.03;;;;;;;19.38;63.65;100168.59;10337568;28;20050;-76
2022/07/21 04:32:34;;;;;;;11.10;7.90;;;;;;;19.36;63.96;100165.25;10333075;28;20569;-75
2022/07/21 04:37:36;;;;;;;9.48;5.85;;;;;;;19.59;64.05;100175.53;10336568;28;20507;-75
2022/07/21 04:42:38;;;;;;;10.18;7.20;;;;;;;19.61;63.75;100182.38;10336180;28;20105;-75
2022/07/21 04:47:50;;;;;;;9.73;6.22;;;;;;;19.74;62.63;100179.44;10335803;28;20530;-76
2022/07/21 04:52:53;;;;;;;11.77;6.03;;;;;;;19.69;62.67;100182.50;10354281;28;20162;-75
2022/07/21 04:57:55;;;;;;;8.90;5.90;;;;;;;19.89;62.28;100185.97;10350879;28;20569;-76
2022/07/21 05:02:56;;;;;;;8.82;5.57;;;;;;;19.94;62.24;100202.31;10329427;28;20053;-76
2022/07/21 05:07:59;;;;;;;10.15;6.30;;;;;;;20.14;62.02;100204.75;10332056;28;20060;-75
2022/07/21 05:13:00;;;;;;;9.23;6.10;;;;;;;20.33;61.14;100206.50;10349969;28;20042;-76
2022/07/21 05:18:02;;;;;;;13.85;6.80;;;;;;;20.34;61.22;100204.69;10331562;28;20120;-76
2022/07/21 05:23:04;;;;;;;9.85;6.05;;;;;;;20.50;60.70;100200.38;10336392;28;20116;-76
2022/07/21 05:28:06;;;;;;;9.55;6.15;;;;;;;20.30;60.40;100198.81;10333400;28;20050;-75
2022/07/21 05:33:11;;;;;;;11.35;5.82;;;;;;;20.51;60.19;100190.59;10328616;28;20054;-76
2022/07/21 05:38:13;;;;;;;8.32;6.10;;;;;;;21.27;58.77;100195.41;10327489;28;20119;-75
2022/07/21 05:43:16;;;;;;;8.98;5.60;;;;;;;22.01;56.51;100193.09;10344425;28;20050;-76
2022/07/21 05:48:19;;;;;;;7.97;5.38;;;;;;;22.72;53.98;100190.09;10333495;28;20641;-76
2022/07/21 05:53:24;;;;;;;7.85;5.60;;;;;;;23.16;52.87;100191.53;10349598;28;20130;-77
2022/07/21 05:58:26;;;;;;;9.48;5.40;;;;;;;23.16;52.72;100204.88;10349103;28;20117;-76
2022/07/21 06:03:29;;;;;;;8.57;5.40;;;;;;;22.65;53.06;100216.56;10332716;28;20056;-78
2022/07/21 06:08:32;;;;;;;9.07;5.32;;;;;;;22.35;53.82;100225.94;10337336;28;20108;-77
2022/07/21 06:13:35;;;;;;;8.57;5.57;;;;;;;22.30;53.94;100219.44;10330727;28;20502;-77
2022/07/21 06:18:37;;;;;;;8.30;5.18;;;;;;;22.36;53.65;100221.44;10335910;28;20096;-77
2022/07/21 06:23:38;;;;;;;8.80;5.45;;;;;;;22.76;53.01;100221.63;10328574;28;20133;-79
2022/07/21 06:28:41;;;;;;;9.93;5.70;;;;;;;23.10;51.97;100229.53;10334350;28;20065;-79
2022/07/21 06:33:43;;;;;;;7.32;5.45;;;;;;;23.08;51.76;100232.38;10334317;28;20995;-79
2022/07/21 06:38:46;;;;;;;7.57;5.30;;;;;;;23.41;51.70;100226.09;10343841;28;20113;-79
2022/07/21 06:43:49;;;;;;;7.70;5.65;;;;;;;23.46;50.94;100228.28;10332591;28;20503;-78
2022/07/21 06:48:51;;;;;;;8.02;5.30;;;;;;;23.43;51.44;100225.94;10348621;28;20606;-78
2022/07/21 06:53:53;;;;;;;6.55;5.10;;;;;;;23.71;51.06;100226.41;10332909;28;20061;-78
2022/07/21 06:58:56;;;;;;;11.20;5.40;;;;;;;23.93;50.18;100225.72;10333439;28;20070;-78
2022/07/21 07:03:58;;;;;;;7.45;5.30;;;;;;;23.71;50.11;100232.59;10330852;28;20561;-78
2022/07/21 07:09:01;;;;;;;9.60;5.72;;;;;;;23.75;49.70;100236.59;10332409;28;20066;-78
2022/07/21 07:14:03;;;;;;;8.20;5.25;;;;;;;23.89;49.47;100237.75;10332615;28;20062;-78
2022/07/21 07:19:17;;;;;;;7.85;4.70;;;;;;;23.90;49.06;100242.09;10331901;28;20112;-78
2022/07/21 07:24:20;;;;;;;7.03;4.78;;;;;;;24.41;48.31;100235.47;10332243;28;20938;-78
2022/07/21 07:29:21;;;;;;;6.60;4.80;;;;;;;24.99;46.83;100238.56;10348935;28;20060;-78
2022/07/21 07:34:23;;;;;;;6.22;4.40;;;;;;;24.96;46.47;100239.72;10328109;28;20050;-78
2022/07/21 07:39:25;;;;;;;6.55;4.50;;;;;;;25.39;45.22;100221.38;10355476;28;20054;-78
2022/07/21 07:44:27;;;;;;;6.47;4.70;;;;;;;25.93;44.18;100222.94;10340927;28;20056;-78
2022/07/21 07:49:31;;;;;;;5.95;4.40;;;;;;;26.82;42.36;100221.88;10337125;28;20098;-78
2022/07/21 07:54:32;;;;;;;7.20;4.40;;;;;;;26.53;42.58;100212.00;10337507;28;20058;-78
2022/07/21 07:59:34;;;;;;;6.32;4.63;;;;;;;25.97;43.42;100215.38;10336703;28;20053;-79
2022/07/21 08:04:36;;;;;;;5.95;4.40;;;;;;;25.28;44.65;100222.63;10339286;28;20054;-78
2022/07/21 08:09:39;;;;;;;7.30;4.70;;;;;;;24.66;46.31;100227.16;10336958;28;20050;-78
2022/07/21 08:14:41;;;;;;;5.93;4.65;;;;;;;24.33;46.58;100233.66;10341899;28;20105;-78
2022/07/21 08:19:44;;;;;;;9.25;4.72;;;;;;;25.31;45.31;100238.34;10337769;28;20050;-79
2022/07/21 08:24:45;;;;;;;6.68;4.63;;;;;;;26.55;42.82;100229.63;10338792;28;20081;-78
2022/07/21 08:29:47;;;;;;;7.63;4.40;;;;;;;27.86;40.54;100222.09;10336003;28;20057;-79
2022/07/21 08:34:49;;;;;;;8.13;4.50;;;;;;;28.73;38.80;100225.91;10338577;28;20159;-79
2022/07/21 08:39:51;;;;;;;5.43;4.10;;;;;;;28.95;37.34;100214.84;10339354;28;20058;-79
2022/07/21 08:44:52;;;;;;;7.32;4.45;;;;;;;28.14;38.15;100210.31;10334478;28;20057;-79
2022/07/21 08:49:55;;;;;;;8.00;3.97;;;;;;;28.60;37.36;100198.97;10338066;28;20111;-79
2022/07/21 08:54:57;;;;;;;6.13;4.18;;;;;;;28.92;36.51;100193.72;10353016;28;20050;-79
2022/07/21 08:59:58;;;;;;;8.05;3.72;;;;;;;29.31;36.07;100192.94;10352378;28;20069;-79
2022/07/21 09:05:04;;;;;;;6.72;3.90;;;;;;;29.71;35.08;100183.00;10337612;28;20053;-79
2022/07/21 09:10:06;;;;;;;5.82;3.47;;;;;;;29.61;34.70;100182.59;10336009;28;20424;-80
2022/07/21 09:15:16;;;;;;;6.28;3.90;;;;;;;29.38;34.31;100188.38;10336583;28;20049;-80
2022/07/21 09:20:25;;;;;;;6.63;3.40;;;;;;;28.18;36.64;100179.28;10336308;28;20053;-80
2022/07/21 09:25:41;;;;;;;5.50;3.80;;;;;;;27.75;37.48;100187.72;10351909;28;20053;-79
2022/07/21 09:31:00;;;;;;;7.50;3.72;;;;;;;26.95;38.73;100197.88;10351062;28;20112;-80
2022/07/21 09:36:08;;;;;;;6.55;3.70;;;;;;;26.80;39.60;100197.94;10336244;28;20050;-79
2022/07/21 09:41:17;;;;;;;5.47;3.40;;;;;;;28.34;36.46;100186.22;10334497;28;20754;-79
2022/07/21 09:46:22;;;;;;;;;;;;;;;28.83;35.28;100184.13;10342073;28;20062;-80
2022/07/21 09:51:31;;;;;;;4.88;3.10;;;;;;;28.75;35.12;100178.94;10352090;28;19925;-80
2022/07/21 09:56:39;;;;;;;5.37;2.90;;;;;;;28.82;34.32;100173.56;10350976;28;20113;-80
2022/07/21 10:01:41;;;;;;;5.78;2.60;;;;;;;28.46;33.90;100179.22;10351403;28;20393;-80
2022/07/21 10:06:46;;;;;;;3.95;2.67;;;;;;;28.03;35.08;100180.47;10349331;28;20054;-80
2022/07/21 10:11:48;;;;;;;6.18;2.60;;;;;;;28.65;33.94;100177.66;10331983;28;20108;-80
2022/07/21 10:16:50;;;;;;;4.57;2.72;;;;;;;28.92;33.06;100161.41;10330863;28;20195;-80
2022/07/21 10:22:17;;;;;;;4.18;2.40;;;;;;;28.78;32.88;100165.06;10335315;28;20571;-80
2022/07/21 10:27:19;;;;;;;4.00;2.30;;;;;;;29.00;32.23;100163.91;10351929;28;20117;-80
2022/07/21 10:32:49;;;;;;;4.68;2.40;;;;;;;29.47;31.07;100143.22;10334414;28;20129;-80
2022/07/21 10:37:51;;;;;;;4.65;2.70;;;;;;;29.12;32.43;100150.66;10334134;28;20081;-80
2022/07/21 10:42:59;;;;;;;6.45;2.65;;;;;;;29.20;32.31;100141.53;10333742;28;20108;-80
2022/07/21 10:48:03;;;;;;;3.90;2.50;;;;;;;29.27;32.31;100145.06;10350843;28;20061;-80
2022/07/21 10:53:17;;;;;;;4.03;2.45;;;;;;;29.15;32.17;100154.81;10349597;28;20073;-80
2022/07/21 10:58:34;;;;;;;5.35;2.53;;;;;;;28.69;32.63;100162.75;10330907;28;20076;-80
2022/07/21 11:03:38;;;;;;;5.13;2.83;;;;;;;28.07;33.55;100165.59;10333348;28;20073;-80
2022/07/21 11:08:47;;;;;;;5.15;2.33;;;;;;;28.06;31.88;100156.69;10334782;28;20086;-80
2022/07/21 11:14:01;;;;;;;;;;;;;;;27.76;32.42;100149.06;10346025;28;20050;-80
2022/07/21 11:19:03;;;;;;;5.47;2.38;;;;;;;28.36;31.11;100146.50;10348771;28;20038;-80
2022/07/21 11:24:05;;;;;;;4.50;2.50;;;;;;;28.61;30.93;100139.56;10333001;28;20050;-80
2022/07/21 11:29:07;;;;;;;6.22;2.70;;;;;;;28.55;30.93;100140.38;10334689;28;20522;-79
2022/07/21 11:34:09;;;;;;;5.32;3.08;;;;;;;28.70;30.54;100135.66;10328675;28;20100;-79
2022/07/21 11:39:14;;;;;;;6.22;3.05;;;;;;;28.92;30.92;100150.63;10332870;28;20085;-80
2022/07/21 11:44:24;;;;;;;5.05;2.60;;;;;;;29.39;29.49;100141.59;10328635;28;20049;-79
2022/07/21 11:49:26;;;;;;;5.03;2.83;;;;;;;29.45;29.87;100129.97;10331752;28;20143;-80
2022/07/21 11:54:37;;;;;;;4.68;2.80;;;;;;;29.28;29.16;100127.84;10324993;28;20054;-79
2022/07/21 11:59:43;;;;;;;6.70;3.00;;;;;;;28.72;30.11;100121.97;10323966;28;20504;-79
2022/07/21 12:04:46;;;;;;;6.45;3.08;;;;;;;28.44;30.09;100129.38;10332498;28;20065;-80
2022/07/21 12:09:51;;;;;;;4.30;2.83;;;;;;;28.12;30.70;100131.69;10345522;28;20064;-80
2022/07/21 12:14:53;;;;;;;4.60;2.80;;;;;;;27.87;31.89;100135.06;10345167;28;20061;-80
2022/07/21 12:20:05;;;;;;;4.75;3.00;;;;;;;28.62;30.93;100132.31;10326957;28;20060;-80
2022/07/21 12:25:08;;;;;;;5.30;3.40;;;;;;;28.60;30.42;100124.44;10333435;28;20053;-79
2022/07/21 12:30:29;;;;;;;6.60;3.72;;;;;;;28.71;31.04;100110.38;10331301;28;20061;-80
2022/07/21 12:35:32;;;;;;;5.38;3.42;;;;;;;28.76;29.89;100107.09;10336491;28;20488;-80
2022/07/21 12:40:37;;;;;;;6.80;3.38;;;;;;;28.71;30.38;100115.75;10354730;28;20061;-79
2022/07/21 12:46:09;;;;;;;5.97;3.67;;;;;;;27.87;30.19;100110.88;10337318;28;20061;-79
2022/07/21 12:51:11;;;;;;;4.90;3.33;;;;;;;27.95;31.16;100119.59;10353177;28;20105;-79
2022/07/21 12:56:19;;;;;;;6.50;3.50;;;;;;;28.06;31.44;100107.44;10352237;28;20054;-79
2022/07/21 13:01:22;;;;;;;6.30;4.00;;;;;;;28.43;31.32;100103.47;10353267;28;20066;-79
2022/07/21 13:06:24;;;;;;;4.93;3.75;;;;;;;28.93;30.48;100098.44;10347644;28;20503;-79
2022/07/21 13:11:26;;;;;;;7.93;4.00;;;;;;;28.91;30.17;100097.00;10329942;28;20053;-79
2022/07/21 13:16:29;;;;;;;5.93;3.45;;;;;;;29.13;30.25;100090.38;10345691;28;20051;-79
2022/07/21 13:21:32;;;;;;;7.00;3.80;;;;;;;28.93;30.03;100094.94;10333504;28;20081;-79
2022/07/21 13:26:33;;;;;;;5.55;3.60;;;;;;;29.32;29.08;100085.97;10332467;28;20053;-79
2022/07/21 13:31:38;;;;;;;5.20;3.47;;;;;;;29.54;29.57;100096.34;10335474;28;20053;-79
2022/07/21 13:36:40;;;;;;;6.28;4.00;;;;;;;29.33;29.63;100111.91;10351002;28;20093;-79
2022/07/21 13:41:44;;;;;;;4.63;3.80;;;;;;;29.06;30.19;100103.84;10331213;28;20050;-79
2022/07/21 13:47:06;;;;;;;7.35;3.80;;;;;;;29.05;29.96;100112.13;10338736;28;20115;-78
2022/07/21 13:52:08;;;;;;;5.07;3.72;;;;;;;28.96;29.65;100100.72;10333835;28;20069;-79
2022/07/21 13:57:10;;;;;;;5.72;3.58;;;;;;;29.07;30.00;100096.59;10331395;28;20108;-79
2022/07/21 14:02:11;;;;;;;6.13;3.85;;;;;;;28.99;29.93;100099.50;10332371;28;20112;-79
2022/07/21 14:07:14;;;;;;;5.88;3.30;;;;;;;29.04;29.30;100092.44;10330679;28;20057;-80
2022/07/21 14:12:18;;;;;;;7.47;3.17;;;;;;;29.07;29.62;100102.78;10332296;28;20596;-80
2022/07/21 14:17:19;;;;;;;7.80;3.22;;;;;;;28.97;29.06;100094.28;10327816;28;20133;-79
2022/07/21 14:22:21;;;;;;;7.95;3.75;;;;;;;28.54;29.79;100109.13;10333577;28;20072;-80
2022/07/21 14:27:26;;;;;;;7.47;3.63;;;;;;;28.09;30.66;100104.38;10335102;28;20085;-79
2022/07/21 14:32:30;;;;;;;7.57;3.90;;;;;;;27.84;31.37;100104.03;10333847;28;20050;-80
2022/07/21 14:37:31;;;;;;;6.05;3.63;;;;;;;27.59;31.86;100107.34;10332054;28;20500;-80
2022/07/21 14:42:34;;;;;;;8.30;4.22;;;;;;;27.43;32.23;100108.50;10332520;28;20132;-80
2022/07/21 14:47:36;;;;;;;11.90;3.90;;;;;;;27.32;32.97;100114.41;10345009;28;20058;-79
2022/07/21 14:52:38;;;;;;;7.45;4.28;;;;;;;27.16;33.36;100117.34;10348305;28;20050;-79
2022/07/21 14:57:40;;;;;;;5.60;3.70;;;;;;;27.07;33.21;100118.50;10331928;28;20061;-79
2022/07/21 15:02:42;;;;;;;6.13;3.88;;;;;;;26.99;33.47;100119.47;10341384;28;20475;-79
2022/07/21 15:07:44;;;;;;;7.68;4.25;;;;;;;27.04;33.68;100124.25;10346917;28;20060;-80
2022/07/21 15:12:46;;;;;;;8.20;3.70;;;;;;;27.00;34.04;100129.19;10346849;28;20101;-80
2022/07/21 15:17:48;;;;;;;4.85;3.38;;;;;;;26.98;34.19;100128.53;10333750;28;20141;-80
2022/07/21 15:22:49;;;;;;;5.88;3.97;;;;;;;26.97;34.15;100126.06;10333023;28;20054;-80
2022/07/21 15:27:51;;;;;;;7.97;4.10;;;;;;;26.80;34.63;100130.00;10329728;28;20626;-80
2022/07/21 15:32:53;;;;;;;5.53;3.60;;;;;;;26.84;34.71;100134.81;10327699;28;20055;-80
2022/07/21 15:37:55;;;;;;;6.65;3.75;;;;;;;26.76;35.67;100131.41;10330551;28;20058;-80
2022/07/21 15:42:57;;;;;;;7.70;3.70;;;;;;;26.52;36.79;100140.63;10331906;28;20061;-80
2022/07/21 15:48:00;;;;;;;9.23;4.03;;;;;;;26.53;36.82;100147.63;10329131;28;20108;-80
2022/07/21 15:53:02;;;;;;;11.93;3.95;;;;;;;26.46;37.34;100146.75;10326215;28;20057;-80
2022/07/21 15:58:05;;;;;;;6.30;3.78;;;;;;;26.04;37.67;100154.66;10334178;28;20104;-80
2022/07/21 16:03:06;;;;;;;7.35;3.83;;;;;;;25.87;38.49;100168.19;10337779;28;20050;-80
2022/07/21 16:08:08;;;;;;;6.30;3.92;;;;;;;25.61;39.57;100173.16;10353656;28;20057;-80
2022/07/21 16:13:10;;;;;;;7.68;4.03;;;;;;;25.56;40.15;100188.97;10354688;28;20104;-80
2022/07/21 16:18:12;;;;;;;8.75;4.15;;;;;;;25.54;40.35;100184.78;10339777;28;20073;-81
2022/07/21 16:23:14;;;;;;;6.10;3.88;;;;;;;25.59;40.03;100187.78;10336235;28;20054;-79
2022/07/21 16:28:15;;;;;;;8.02;3.83;;;;;;;25.58;40.48;100194.97;10339228;28;20050;-80
2022/07/21 16:33:17;;;;;;;9.23;5.05;;;;;;;25.51;41.13;100177.13;10335631;28;20613;-80
2022/07/21 16:38:19;;;;;;;7.50;4.88;;;;;;;25.43;41.45;100188.72;10336381;28;20574;-81
2022/07/21 16:43:21;;;;;;;6.90;4.45;;;;;;;25.31;41.63;100184.78;10337953;28;20085;-80
2022/07/21 16:48:23;;;;;;;8.10;4.30;;;;;;;25.28;41.59;100182.47;10336921;28;20492;-80
2022/07/21 16:53:24;;;;;;;8.85;4.50;;;;;;;25.23;42.27;100184.84;10336407;28;20046;-80
2022/07/21 16:58:26;;;;;;;10.55;4.45;;;;;;;25.15;42.78;100190.28;10336368;28;20125;-80
2022/07/21 17:03:28;;;;;;;6.97;4.43;;;;;;;25.23;42.73;100179.50;10337434;28;20053;-80
2022/07/21 17:08:30;;;;;;;7.90;4.57;;;;;;;25.42;42.47;100173.69;10333409;28;20065;-80
2022/07/21 17:13:32;;;;;;;6.32;4.60;;;;;;;25.32;42.29;100173.06;10329209;28;20061;-80
2022/07/21 17:18:34;;;;;;;7.55;4.68;;;;;;;25.35;42.51;100172.72;10333634;28;20062;-80
2022/07/21 17:23:36;;;;;;;8.77;4.80;;;;;;;25.30;43.03;100185.81;10335078;28;20128;-80
2022/07/21 17:28:38;;;;;;;8.88;4.40;;;;;;;25.58;42.19;100184.25;10335832;28;20078;-79
2022/07/21 17:33:40;;;;;;;7.90;4.82;;;;;;;25.23;43.04;100187.53;10335169;28;20062;-80
2022/07/21 17:38:42;;;;;;;7.25;4.47;;;;;;;25.23;42.96;100192.03;10335411;28;20058;-80
2022/07/21 17:43:44;;;;;;;9.30;5.00;;;;;;;24.90;44.20;100210.16;10333137;28;20050;-80
2022/07/21 17:48:45;;;;;;;9.20;5.32;;;;;;;24.54;45.07;100214.34;10332295;28;20050;-80
2022/07/21 17:53:48;;;;;;;5.60;4.88;;;;;;;24.29;46.12;100216.28;10332684;28;20077;-79
2022/07/21 17:58:50;;;;;;;6.72;4.53;;;;;;;24.13;46.27;100219.00;10334265;28;20144;-80
2022/07/21 18:03:53;;;;;;;5.88;3.92;;;;;;;24.00;46.79;100222.19;10334734;28;20409;-80
2022/07/21 18:08:56;;;;;;;7.45;3.65;;;;;;;23.58;47.88;100236.75;10344569;28;20058;-79
2022/07/21 18:13:59;;;;;;;6.40;3.60;;;;;;;23.27;48.41;100236.56;10330699;28;20500;-79
2022/07/21 18:19:01;;;;;;;3.97;3.10;;;;;;;23.22;48.63;100242.41;10331386;28;20061;-79
2022/07/21 18:24:03;;;;;;;5.05;3.10;;;;;;;23.26;48.43;100241.09;10329026;28;20046;-80
2022/07/21 18:29:13;;;;;;;4.28;2.75;;;;;;;23.36;48.27;100248.91;10331518;28;20061;-80
2022/07/21 18:34:19;;;;;;;5.35;2.75;;;;;;;23.33;48.05;100234.06;10346364;28;20057;-79
2022/07/21 18:39:21;;;;;;;4.68;2.78;;;;;;;23.21;48.36;100253.22;10332562;28;20062;-80
2022/07/21 18:44:24;;;;;;;4.40;2.72;;;;;;;23.11;48.71;100244.53;10329438;28;20045;-79
2022/07/21 18:49:25;;;;;;;5.00;3.00;;;;;;;23.05;48.60;100245.19;10328792;28;20061;-79
2022/07/21 18:54:27;;;;;;;3.67;2.47;;;;;;;22.73;49.29;100253.09;10331124;28;20046;-80
2022/07/21 18:59:29;;;;;;;3.58;2.60;;;;;;;22.40;49.71;100247.63;10328586;28;20096;-81
2022/07/21 19:04:32;;;;;;;5.63;2.92;;;;;;;22.25;50.31;100257.19;10333895;28;20084;-81
2022/07/21 19:09:34;;;;;;;6.38;2.67;;;;;;;22.22;50.31;100265.53;10330195;28;20050;-80
2022/07/21 19:14:36;;;;;;;5.32;3.30;;;;;;;22.06;50.23;100259.25;10330977;28;20531;-80
2022/07/21 19:19:37;;;;;;;6.30;3.65;;;;;;;22.01;50.64;100269.50;10332339;28;20058;-80
2022/07/21 19:24:39;;;;;;;7.47;3.90;;;;;;;21.83;50.87;100267.72;10332840;28;20050;-80
2022/07/21 19:29:41;;;;;;;7.05;3.70;;;;;;;21.79;50.80;100270.84;10334230;28;20112;-80
2022/07/21 19:34:43;;;;;;;5.75;3.97;;;;;;;21.68;50.69;100274.59;10337768;28;20653;-80
2022/07/21 19:39:45;;;;;;;8.23;4.43;;;;;;;21.60;50.42;100276.34;10355668;28;20068;-80
2022/07/21 19:44:46;;;;;;;8.02;4.28;;;;;;;21.52;50.96;100287.75;10339412;28;20108;-79
2022/07/21 19:49:48;;;;;;;6.55;4.55;;;;;;;21.42;50.94;100287.00;10338869;28;20054;-80
2022/07/21 19:54:50;;;;;;;6.22;4.80;;;;;;;21.28;51.14;100292.81;10339450;28;20054;-80
2022/07/21 19:59:54;;;;;;;7.28;4.72;;;;;;;21.21;51.24;100296.25;10339850;28;20070;-80
2022/07/21 20:04:55;;;;;;;7.68;4.80;;;;;;;21.12;51.20;100299.78;10356287;28;20108;-79
2022/07/21 20:09:57;;;;;;;7.40;4.78;;;;;;;21.14;51.22;100300.47;10333039;28;20050;-80
2022/07/21 20:14:59;;;;;;;8.32;5.25;;;;;;;21.11;51.12;100312.25;10338093;28;20566;-80
2022/07/21 20:20:01;;;;;;;7.07;4.72;;;;;;;21.09;51.33;100303.59;10337404;28;20060;-80
2022/07/21 20:25:04;;;;;;;8.50;5.47;;;;;;;20.95;51.34;100312.91;10337238;28;20050;-80
2022/07/21 20:30:06;;;;;;;6.85;5.00;;;;;;;21.03;50.99;100310.34;10337008;28;20057;-80
2022/07/21 20:35:08;;;;;;;6.95;4.95;;;;;;;21.19;50.41;100320.34;10337246;28;20046;-80
2022/07/21 20:40:19;;;;;;;6.97;5.15;;;;;;;21.36;49.97;100310.72;10338769;28;20054;-80
2022/07/21 20:45:26;;;;;;;8.55;5.40;;;;;;;21.45;49.88;100323.13;10349400;28;20056;-80
2022/07/21 20:50:28;;;;;;;7.68;4.97;;;;;;;21.44;49.83;100326.75;10338417;28;20057;-80
2022/07/21 20:55:30;;;;;;;8.45;5.07;;;;;;;21.47;50.00;100331.81;10335574;28;20053;-80
2022/07/21 21:00:48;;;;;;;10.73;5.07;;;;;;;21.41;50.09;100324.41;10348508;28;20050;-80
2022/07/21 21:05:50;;;;;;;7.63;4.88;;;;;;;21.37;49.90;100331.03;10338551;28;20054;-81
2022/07/21 21:10:52;;;;;;;7.50;5.03;;;;;;;21.20;50.26;100331.81;10335745;28;20296;-81
2022/07/21 21:15:53;;;;;;;8.50;5.30;;;;;;;21.06;50.49;100334.00;10334561;28;20053;-80
2022/07/21 21:20:56;;;;;;;7.78;4.93;;;;;;;21.03;50.52;100336.94;10332281;28;20089;-80
2022/07/21 21:25:59;;;;;;;8.95;4.85;;;;;;;20.77;50.97;100341.28;10332992;28;20133;-80
2022/07/21 21:31:03;;;;;;;9.02;5.10;;;;;;;20.64;51.44;100332.78;10334497;28;20152;-81
2022/07/21 21:36:05;;;;;;;9.80;6.38;;;;;;;20.66;51.33;100333.47;10349961;28;20073;-81
2022/07/21 21:41:07;;;;;;;13.85;5.40;;;;;;;20.56;51.54;100326.50;10334411;28;20080;-80
2022/07/21 21:46:10;;;;;;;8.23;4.60;;;;;;;20.49;52.01;100326.25;10334608;28;21023;-81
2022/07/21 21:51:12;;;;;;;9.10;5.22;;;;;;;20.42;52.27;100330.47;10350385;28;20050;-80
2022/07/21 21:56:14;;;;;;;10.25;5.07;;;;;;;20.36;52.38;100323.06;10334986;28;20085;-80
2022/07/21 22:01:16;;;;;;;8.50;4.85;;;;;;;20.22;52.77;100334.16;10335183;28;20050;-80
2022/07/21 22:06:18;;;;;;;8.85;5.15;;;;;;;20.16;52.59;100329.41;10351386;28;20046;-80
2022/07/21 22:11:20;;;;;;;9.00;5.13;;;;;;;20.09;52.95;100334.44;10333175;28;20058;-80
2022/07/21 22:16:22;;;;;;;8.55;5.47;;;;;;;20.06;52.99;100334.75;10334030;28;20097;-80
2022/07/21 22:21:24;;;;;;;11.93;5.30;;;;;;;20.02;53.24;100340.47;10333664;28;20061;-80
2022/07/21 22:26:28;;;;;;;10.15;5.45;;;;;;;19.94;53.34;100343.84;10333319;28;20072;-80
2022/07/21 22:31:30;;;;;;;11.32;5.38;;;;;;;19.95;53.37;100342.03;10334980;28;20436;-80
2022/07/21 22:36:32;;;;;;;9.95;5.30;;;;;;;19.82;53.77;100336.16;10334816;28;20070;-80
2022/07/21 22:41:33;;;;;;;8.68;5.22;;;;;;;19.72;54.04;100340.63;10331290;28;20578;-80
2022/07/21 22:46:35;;;;;;;8.00;5.43;;;;;;;19.72;53.96;100345.91;10351591;28;20104;-80
2022/07/21 22:51:37;;;;;;;9.05;5.45;;;;;;;19.74;53.96;100339.50;10331922;28;20140;-80
2022/07/21 22:56:39;;;;;;;10.52;5.35;;;;;;;19.76;53.87;100336.69;10331088;28;20112;-81
2022/07/21 23:01:41;;;;;;;7.53;4.95;;;;;;;19.77;54.00;100333.06;10331196;28;20066;-80
2022/07/21 23:06:42;;;;;;;8.43;5.28;;;;;;;19.66;54.20;100335.88;10330330;28;20112;-81
2022/07/21 23:11:44;;;;;;;8.32;5.53;;;;;;;19.56;54.38;100341.19;10329096;28;20054;-81
2022/07/21 23:16:46;;;;;;;14.38;5.78;;;;;;;19.35;54.95;100343.94;10330170;28;20100;-80
2022/07/21 23:21:48;;;;;;;11.05;5.63;;;;;;;19.25;55.32;100347.56;10331514;28;20057;-80